Time;durP1;ratioP1;P1;durP2;ratioP2;P2;SDS_P1;SDS_P2;PMS_P1;PMS_P2;Temp;Humidity;BMP_temperature;BMP_pressure;BME280_temperature;BME280_humidity;BME280_pressure;Samples;Min_cycle;Max_cycle;Signal;HPM_P1;HPM_P2
2022/07/28 00:02:11;;;;;;;;;;;24.60;40.90;;;;;;5050703;28;20061;-62
2022/07/28 00:04:37;;;;;;;;;;;24.60;40.90;;;;;;5047771;28;19917;-63
2022/07/28 00:07:02;;;;;;;;;;;24.60;40.90;;;;;;5047487;28;19921;-62
2022/07/28 00:09:28;;;;;;;;;;;24.70;40.90;;;;;;5046541;28;20361;-62
2022/07/28 00:11:53;;;;;;;;;;;24.70;40.90;;;;;;5048242;28;21315;-63
2022/07/28 00:14:20;;;;;;;;;;;24.70;40.80;;;;;;5046511;28;19924;-63
2022/07/28 00:16:45;;;;;;;;;;;24.70;40.80;;;;;;5049844;28;19913;-63
2022/07/28 00:19:11;;;;;;;;;;;24.70;40.70;;;;;;5046804;28;20301;-63
2022/07/28 00:21:36;;;;;;;;;;;24.70;40.70;;;;;;5047267;28;19966;-63
2022/07/28 00:24:02;;;;;;;;;;;24.70;40.70;;;;;;5050962;28;19913;-63
2022/07/28 00:26:27;;;;;;;;;;;24.70;40.60;;;;;;5049791;28;19917;-62
2022/07/28 00:28:53;;;;;;;;;;;24.70;40.60;;;;;;5050310;28;19919;-63
2022/07/28 00:31:18;;;;;;;;;;;24.70;40.80;;;;;;5053159;28;19975;-63
2022/07/28 00:33:43;;;;;;;;;;;24.70;40.70;;;;;;5050108;28;19921;-63
2022/07/28 00:36:09;;;;;;;;;;;24.70;40.70;;;;;;5051038;28;19916;-63
2022/07/28 00:38:34;;;;;;;;;;;24.70;40.70;;;;;;5049934;28;20007;-63
2022/07/28 00:41:09;;;;;;;;;;;24.70;40.60;;;;;;5049203;28;19917;-63
2022/07/28 00:43:35;;;;;;;;;;;24.80;40.70;;;;;;5052322;28;20372;-63
2022/07/28 00:46:01;;;;;;;;;;;24.70;40.70;;;;;;5047336;28;20016;-62
2022/07/28 00:48:26;;;;;;;;;;;24.70;40.80;;;;;;5049705;28;19921;-63
2022/07/28 00:50:52;;;;;;;;;;;24.70;40.80;;;;;;5049889;28;20396;-63
2022/07/28 00:53:17;;;;;;;;;;;24.80;40.90;;;;;;5048674;28;20391;-63
2022/07/28 00:55:43;;;;;;;;;;;24.70;40.90;;;;;;5045916;28;19971;-63
2022/07/28 00:58:08;;;;;;;;;;;24.70;40.80;;;;;;5039248;28;19913;-63
2022/07/28 01:00:33;;;;;;;;;;;24.70;40.80;;;;;;5049379;28;20339;-63
2022/07/28 01:02:59;;;;;;;;;;;24.70;40.80;;;;;;5051532;28;19924;-62
2022/07/28 01:05:25;;;;;;;;;;;24.70;40.80;;;;;;5051709;28;19912;-63
2022/07/28 01:07:53;;;;;;;;;;;24.70;41.00;;;;;;5049957;28;19916;-63
2022/07/28 01:10:20;;;;;;;;;;;24.70;41.00;;;;;;5066450;28;19917;-63
2022/07/28 01:12:58;;;;;;;;;;;24.60;40.90;;;;;;5050340;28;19971;-62
2022/07/28 01:15:32;;;;;;;;;;;24.60;41.00;;;;;;5052375;28;19912;-62
2022/07/28 01:18:00;;;;;;;;;;;24.60;41.00;;;;;;5050885;28;19995;-62
2022/07/28 01:20:36;;;;;;;;;;;24.50;41.00;;;;;;5049219;28;19912;-63
2022/07/28 01:23:09;;;;;;;;;;;24.50;41.10;;;;;;5050840;28;19917;-63
2022/07/28 01:25:48;;;;;;;;;;;24.60;41.10;;;;;;5046412;28;20297;-63
2022/07/28 01:28:20;;;;;;;;;;;24.60;40.90;;;;;;5049578;28;20007;-63
2022/07/28 01:30:46;;;;;;;;;;;24.60;41.00;;;;;;5049425;28;19913;-63
2022/07/28 01:33:11;;;;;;;;;;;24.60;41.00;;;;;;5047894;28;19982;-63
2022/07/28 01:36:03;;;;;;;;;;;24.50;40.90;;;;;;5051038;28;19959;-63
2022/07/28 01:38:30;;;;;;;;;;;24.50;40.90;;;;;;5045669;28;19920;-62
2022/07/28 01:40:56;;;;;;;;;;;24.50;40.90;;;;;;5050925;28;20204;-62
2022/07/28 01:43:23;;;;;;;;;;;24.50;40.90;;;;;;5048933;28;19997;-62
2022/07/28 01:45:48;;;;;;;;;;;24.50;40.90;;;;;;5050902;28;19916;-63
2022/07/28 01:48:14;;;;;;;;;;;24.50;40.80;;;;;;5050279;28;20292;-62
2022/07/28 01:50:40;;;;;;;;;;;24.60;40.80;;;;;;5052180;28;19924;-62
2022/07/28 01:53:07;;;;;;;;;;;24.60;40.80;;;;;;5048915;28;20007;-62
2022/07/28 01:55:33;;;;;;;;;;;24.60;40.70;;;;;;5049791;28;19921;-62
2022/07/28 01:57:58;;;;;;;;;;;24.60;40.60;;;;;;5051321;28;20431;-62
2022/07/28 02:00:24;;;;;;;;;;;24.60;40.70;;;;;;5049329;28;19924;-63
2022/07/28 02:02:49;;;;;;;;;;;24.60;40.60;;;;;;5048598;28;19923;-63
2022/07/28 02:05:15;;;;;;;;;;;24.60;40.70;;;;;;5045334;28;20003;-62
2022/07/28 02:07:41;;;;;;;;;;;24.50;40.70;;;;;;5042571;28;19940;-62
2022/07/28 02:10:06;;;;;;;;;;;24.50;40.70;;;;;;5049479;28;19917;-62
2022/07/28 02:12:32;;;;;;;;;;;24.60;40.80;;;;;;5047257;28;20006;-63
2022/07/28 02:14:57;;;;;;;;;;;24.60;40.70;;;;;;5049282;28;19913;-63
2022/07/28 02:17:27;;;;;;;;;;;24.60;40.70;;;;;;5047187;28;19913;-62
2022/07/28 02:19:52;;;;;;;;;;;24.50;40.60;;;;;;5044766;28;20406;-63
2022/07/28 02:22:17;;;;;;;;;;;24.60;40.60;;;;;;5049231;28;19912;-63
2022/07/28 02:24:43;;;;;;;;;;;24.50;40.60;;;;;;5046920;28;20419;-63
2022/07/28 02:27:14;;;;;;;;;;;24.50;40.80;;;;;;5048965;28;19917;-63
2022/07/28 02:29:41;;;;;;;;;;;24.50;40.80;;;;;;5046350;28;20043;-63
2022/07/28 02:32:08;;;;;;;;;;;24.50;40.60;;;;;;5050748;28;20003;-62
2022/07/28 02:34:33;;;;;;;;;;;24.60;40.70;;;;;;5049202;28;20375;-62
2022/07/28 02:36:59;;;;;;;;;;;24.50;40.60;;;;;;5049218;28;20000;-62
2022/07/28 02:39:28;;;;;;;;;;;24.60;40.80;;;;;;5043308;28;20015;-63
2022/07/28 02:41:55;;;;;;;;;;;24.50;40.70;;;;;;5048194;28;19913;-63
2022/07/28 02:44:23;;;;;;;;;;;24.50;40.60;;;;;;5050794;28;19919;-63
2022/07/28 02:46:50;;;;;;;;;;;24.50;40.70;;;;;;5049515;28;19923;-62
2022/07/28 02:49:22;;;;;;;;;;;24.50;40.70;;;;;;5049885;28;19960;-62
2022/07/28 02:51:48;;;;;;;;;;;24.50;40.80;;;;;;5047337;28;19913;-62
2022/07/28 02:54:13;;;;;;;;;;;24.50;40.70;;;;;;5049165;28;19913;-63
2022/07/28 02:56:39;;;;;;;;;;;24.50;40.70;;;;;;5051103;28;19940;-63
2022/07/28 02:59:04;;;;;;;;;;;24.50;40.90;;;;;;5051548;28;19913;-63
2022/07/28 03:01:30;;;;;;;;;;;24.40;40.80;;;;;;5050649;28;20016;-62
2022/07/28 03:03:56;;;;;;;;;;;24.50;41.00;;;;;;5049546;28;19942;-62
2022/07/28 03:06:22;;;;;;;;;;;24.50;41.10;;;;;;5049596;28;19990;-62
2022/07/28 03:08:49;;;;;;;;;;;24.50;41.00;;;;;;5049228;28;19944;-62
2022/07/28 03:11:15;;;;;;;;;;;24.50;41.10;;;;;;5063028;28;19928;-62
2022/07/28 03:13:40;;;;;;;;;;;24.50;41.10;;;;;;5046060;28;19947;-63
2022/07/28 03:16:06;;;;;;;;;;;24.50;41.10;;;;;;5051917;28;20336;-62
2022/07/28 03:18:31;;;;;;;;;;;24.40;41.10;;;;;;5037871;28;20351;-62
2022/07/28 03:20:57;;;;;;;;;;;24.50;41.20;;;;;;5050911;28;19909;-62
2022/07/28 03:23:23;;;;;;;;;;;24.40;41.20;;;;;;5050860;28;19939;-62
2022/07/28 03:25:49;;;;;;;;;;;24.50;41.40;;;;;;5047839;28;20695;-63
2022/07/28 03:28:18;;;;;;;;;;;24.40;41.30;;;;;;5050922;28;19916;-63
2022/07/28 03:30:51;;;;;;;;;;;24.40;41.50;;;;;;5046718;28;19913;-63
2022/07/28 03:33:16;;;;;;;;;;;24.40;41.50;;;;;;5047415;28;20016;-62
2022/07/28 03:35:43;;;;;;;;;;;24.40;41.50;;;;;;5050977;28;19958;-62
2022/07/28 03:38:09;;;;;;;;;;;24.40;41.60;;;;;;5049172;28;19951;-63
2022/07/28 03:40:35;;;;;;;;;;;24.30;41.70;;;;;;5042544;28;19916;-62
2022/07/28 03:43:05;;;;;;;;;;;24.30;41.60;;;;;;5050148;28;19968;-62
2022/07/28 03:45:30;;;;;;;;;;;24.30;41.60;;;;;;5050541;28;20054;-62
2022/07/28 03:47:56;;;;;;;;;;;24.30;41.60;;;;;;5047615;28;20420;-62
2022/07/28 03:50:25;;;;;;;;;;;24.30;41.80;;;;;;5050688;28;20388;-62
2022/07/28 03:52:50;;;;;;;;;;;24.30;41.90;;;;;;5052291;28;19913;-63
2022/07/28 03:55:16;;;;;;;;;;;24.30;41.80;;;;;;5051790;28;19996;-63
2022/07/28 03:57:41;;;;;;;;;;;24.30;41.70;;;;;;5055052;28;19909;-63
2022/07/28 04:00:07;;;;;;;;;;;24.40;41.80;;;;;;5053312;28;19920;-62
2022/07/28 04:02:33;;;;;;;;;;;24.30;41.90;;;;;;5051972;28;19913;-63
2022/07/28 04:04:59;;;;;;;;;;;24.30;42.00;;;;;;5055117;28;20327;-63
2022/07/28 04:07:24;;;;;;;;;;;24.30;42.20;;;;;;5051876;28;19921;-63
2022/07/28 04:09:50;;;;;;;;;;;24.30;42.40;;;;;;5055027;28;20325;-63
2022/07/28 04:12:15;;;;;;;;;;;24.20;42.40;;;;;;5051421;28;19917;-62
2022/07/28 04:14:40;;;;;;;;;;;24.20;42.50;;;;;;5054393;28;19915;-62
2022/07/28 04:17:06;;;;;;;;;;;24.20;42.50;;;;;;5053945;28;19920;-63
2022/07/28 04:19:33;;;;;;;;;;;24.20;42.60;;;;;;5050889;28;21276;-63
2022/07/28 04:21:58;;;;;;;;;;;24.30;42.70;;;;;;5050277;28;19917;-63
2022/07/28 04:24:24;;;;;;;;;;;24.20;42.70;;;;;;5050753;28;19942;-63
2022/07/28 04:26:49;;;;;;;;;;;24.20;42.80;;;;;;5053609;28;19917;-63
2022/07/28 04:29:15;;;;;;;;;;;24.20;43.00;;;;;;5050912;28;19912;-63
2022/07/28 04:31:40;;;;;;;;;;;24.20;43.00;;;;;;5051081;28;19912;-63
2022/07/28 04:34:06;;;;;;;;;;;24.20;43.00;;;;;;5053044;28;20365;-62
2022/07/28 04:36:31;;;;;;;;;;;24.20;42.90;;;;;;5053467;28;20388;-63
2022/07/28 04:38:58;;;;;;;;;;;24.20;42.90;;;;;;5049362;28;19982;-63
2022/07/28 04:41:24;;;;;;;;;;;24.20;43.30;;;;;;5048744;28;19913;-63
2022/07/28 04:43:49;;;;;;;;;;;24.20;43.50;;;;;;5050711;28;20050;-62
2022/07/28 04:46:15;;;;;;;;;;;24.20;43.50;;;;;;5052212;28;20003;-62
2022/07/28 04:48:40;;;;;;;;;;;24.20;43.50;;;;;;5049405;28;19909;-63
2022/07/28 04:51:06;;;;;;;;;;;24.10;43.60;;;;;;5040652;28;19924;-63
2022/07/28 04:53:31;;;;;;;;;;;24.10;43.70;;;;;;5053470;28;19995;-62
2022/07/28 04:55:56;;;;;;;;;;;24.10;43.60;;;;;;5050893;28;19962;-62
2022/07/28 04:58:22;;;;;;;;;;;24.20;43.90;;;;;;5042631;28;19922;-63
2022/07/28 05:00:48;;;;;;;;;;;24.10;43.90;;;;;;5051210;28;20400;-63
2022/07/28 05:03:13;;;;;;;;;;;24.10;43.90;;;;;;5035194;28;19913;-63
2022/07/28 05:05:39;;;;;;;;;;;24.20;44.10;;;;;;5043022;28;20363;-62
2022/07/28 05:08:04;;;;;;;;;;;24.10;44.10;;;;;;5052966;28;19921;-62
2022/07/28 05:10:30;;;;;;;;;;;24.10;44.10;;;;;;5046674;28;19919;-62
2022/07/28 05:12:56;;;;;;;;;;;24.00;44.40;;;;;;5051482;28;20385;-62
2022/07/28 05:15:21;;;;;;;;;;;24.10;44.50;;;;;;5047845;28;19962;-62
2022/07/28 05:17:47;;;;;;;;;;;24.10;44.40;;;;;;5052685;28;19913;-62
2022/07/28 05:20:12;;;;;;;;;;;24.10;44.40;;;;;;5049248;28;19936;-63
2022/07/28 05:22:42;;;;;;;;;;;24.20;44.50;;;;;;5049288;28;20000;-63
2022/07/28 05:25:17;;;;;;;;;;;24.10;44.40;;;;;;5031784;28;19996;-63
2022/07/28 05:27:43;;;;;;;;;;;24.10;44.50;;;;;;5044864;28;19917;-62
2022/07/28 05:30:09;;;;;;;;;;;24.10;44.60;;;;;;5048896;28;19913;-63
2022/07/28 05:32:34;;;;;;;;;;;24.00;44.90;;;;;;5046095;28;19917;-63
2022/07/28 05:34:59;;;;;;;;;;;23.90;44.90;;;;;;5051207;28;19913;-62
2022/07/28 05:37:25;;;;;;;;;;;24.00;44.80;;;;;;5051291;28;19920;-63
2022/07/28 05:39:50;;;;;;;;;;;24.00;44.80;;;;;;5038387;28;19920;-63
2022/07/28 05:42:16;;;;;;;;;;;24.10;44.70;;;;;;5044027;28;19924;-63
2022/07/28 05:44:41;;;;;;;;;;;24.10;44.70;;;;;;5047396;28;19916;-63
2022/07/28 05:47:07;;;;;;;;;;;24.10;44.90;;;;;;5049193;28;19993;-62
2022/07/28 05:49:32;;;;;;;;;;;24.10;44.70;;;;;;5053131;28;19909;-62
2022/07/28 05:51:58;;;;;;;;;;;24.10;44.70;;;;;;5051102;28;19912;-62
2022/07/28 05:54:23;;;;;;;;;;;24.20;44.90;;;;;;5052130;28;20000;-62
2022/07/28 05:56:49;;;;;;;;;;;24.10;44.90;;;;;;5050176;28;19920;-62
2022/07/28 05:59:15;;;;;;;;;;;24.10;45.00;;;;;;5048848;28;19921;-62
2022/07/28 06:01:40;;;;;;;;;;;24.10;44.90;;;;;;5049206;28;20418;-62
2022/07/28 06:04:06;;;;;;;;;;;24.10;44.90;;;;;;5052865;28;19913;-62
2022/07/28 06:06:31;;;;;;;;;;;24.00;44.90;;;;;;5052594;28;20281;-63
2022/07/28 06:08:57;;;;;;;;;;;24.10;44.90;;;;;;5050980;28;20296;-62
2022/07/28 06:11:23;;;;;;;;;;;24.10;44.80;;;;;;5047462;28;19940;-62
2022/07/28 06:13:49;;;;;;;;;;;24.00;44.90;;;;;;5050070;28;19936;-62
2022/07/28 06:16:14;;;;;;;;;;;24.00;45.00;;;;;;5049731;28;19921;-62
2022/07/28 06:18:42;;;;;;;;;;;24.00;45.00;;;;;;5049228;28;20289;-63
2022/07/28 06:21:08;;;;;;;;;;;24.00;45.00;;;;;;5052461;28;19966;-63
2022/07/28 06:23:33;;;;;;;;;;;23.90;44.90;;;;;;5050585;28;19912;-63
2022/07/28 06:25:59;;;;;;;;;;;24.00;44.80;;;;;;5052609;28;20300;-62
2022/07/28 06:28:25;;;;;;;;;;;24.00;44.70;;;;;;5048400;28;20373;-62
2022/07/28 06:30:50;;;;;;;;;;;24.00;44.80;;;;;;5051453;28;20373;-62
2022/07/28 06:33:16;;;;;;;;;;;24.00;44.60;;;;;;5050746;28;19912;-63
2022/07/28 06:35:41;;;;;;;;;;;24.00;44.50;;;;;;5048289;28;19909;-63
2022/07/28 06:38:07;;;;;;;;;;;24.00;44.90;;;;;;5049410;28;20419;-63
2022/07/28 06:40:32;;;;;;;;;;;24.00;44.70;;;;;;5049100;28;19982;-63
2022/07/28 06:42:58;;;;;;;;;;;24.00;44.70;;;;;;5048641;28;20385;-63
2022/07/28 06:45:23;;;;;;;;;;;23.90;44.60;;;;;;5050391;28;19919;-63
2022/07/28 06:47:49;;;;;;;;;;;24.00;44.80;;;;;;5050824;28;20384;-63
2022/07/28 06:50:14;;;;;;;;;;;24.00;44.50;;;;;;5046463;28;19917;-63
2022/07/28 06:52:40;;;;;;;;;;;24.00;44.60;;;;;;5044501;28;19957;-63
2022/07/28 06:55:05;;;;;;;;;;;24.00;44.70;;;;;;5033465;28;19914;-62
2022/07/28 06:57:32;;;;;;;;;;;23.90;44.70;;;;;;5046071;28;19917;-62
2022/07/28 06:59:57;;;;;;;;;;;23.90;44.80;;;;;;5044024;28;19917;-62
2022/07/28 07:02:23;;;;;;;;;;;23.90;44.70;;;;;;5046464;28;19913;-63
2022/07/28 07:04:50;;;;;;;;;;;24.00;44.80;;;;;;5046550;28;19924;-63
2022/07/28 07:07:16;;;;;;;;;;;23.90;44.60;;;;;;5049154;28;20376;-63
2022/07/28 07:09:41;;;;;;;;;;;24.00;44.60;;;;;;5041765;28;19913;-62
2022/07/28 07:12:07;;;;;;;;;;;23.90;44.60;;;;;;5063519;28;20326;-62
2022/07/28 07:14:32;;;;;;;;;;;23.90;44.60;;;;;;5049971;28;19913;-63
2022/07/28 07:16:57;;;;;;;;;;;23.90;44.60;;;;;;5051812;28;19912;-63
2022/07/28 07:19:23;;;;;;;;;;;23.90;44.60;;;;;;5050623;28;19962;-62
2022/07/28 07:21:48;;;;;;;;;;;23.90;44.60;;;;;;5051823;28;19913;-62
2022/07/28 07:24:14;;;;;;;;;;;23.90;44.50;;;;;;5047233;28;20364;-62
2022/07/28 07:26:39;;;;;;;;;;;24.00;44.50;;;;;;5042722;28;19951;-62
2022/07/28 07:29:05;;;;;;;;;;;23.90;44.30;;;;;;5051696;28;19909;-62
2022/07/28 07:31:31;;;;;;;;;;;24.00;44.30;;;;;;5051292;28;20011;-62
2022/07/28 07:33:56;;;;;;;;;;;23.90;44.50;;;;;;5055143;28;19920;-62
2022/07/28 07:36:22;;;;;;;;;;;23.80;44.50;;;;;;5054646;28;19915;-62
2022/07/28 07:38:47;;;;;;;;;;;23.80;44.40;;;;;;5049082;28;19917;-62
2022/07/28 07:41:13;;;;;;;;;;;23.80;44.30;;;;;;5049790;28;20008;-62
2022/07/28 07:43:38;;;;;;;;;;;23.80;44.20;;;;;;5054424;28;19940;-62
2022/07/28 07:46:04;;;;;;;;;;;23.80;44.20;;;;;;5051048;28;19913;-62
2022/07/28 07:48:30;;;;;;;;;;;23.90;44.10;;;;;;5035217;28;19917;-62
2022/07/28 07:50:55;;;;;;;;;;;23.80;44.00;;;;;;5045665;28;20407;-62
2022/07/28 07:53:21;;;;;;;;;;;23.80;44.10;;;;;;5051465;28;19928;-63
2022/07/28 07:55:47;;;;;;;;;;;23.80;44.20;;;;;;5063600;28;19928;-62
2022/07/28 07:58:13;;;;;;;;;;;23.80;44.20;;;;;;5061467;28;19920;-62
2022/07/28 08:00:38;;;;;;;;;;;23.80;44.20;;;;;;5052415;28;19920;-62
2022/07/28 08:03:03;;;;;;;;;;;23.90;44.20;;;;;;5055051;28;20371;-63
2022/07/28 08:05:29;;;;;;;;;;;23.90;44.00;;;;;;5052091;28;19920;-62
2022/07/28 08:07:55;;;;;;;;;;;23.90;43.80;;;;;;5050416;28;19987;-62
2022/07/28 08:10:20;;;;;;;;;;;24.00;43.70;;;;;;5049147;28;19913;-62
2022/07/28 08:12:46;;;;;;;;;;;23.90;43.70;;;;;;5038297;28;19929;-62
2022/07/28 08:15:11;;;;;;;;;;;23.90;43.70;;;;;;5049285;28;20000;-61
2022/07/28 08:17:36;;;;;;;;;;;23.90;43.80;;;;;;5047880;28;19921;-61
2022/07/28 08:20:03;;;;;;;;;;;23.80;44.00;;;;;;5049062;28;20276;-61
2022/07/28 08:22:28;;;;;;;;;;;23.80;44.10;;;;;;5049589;28;19913;-62
2022/07/28 08:24:53;;;;;;;;;;;23.80;44.10;;;;;;5051790;28;19986;-62
2022/07/28 08:27:19;;;;;;;;;;;23.80;44.00;;;;;;5049037;28;19921;-62
2022/07/28 08:29:44;;;;;;;;;;;23.90;44.00;;;;;;5049760;28;20001;-63
2022/07/28 08:32:10;;;;;;;;;;;23.80;43.80;;;;;;5049537;28;19959;-62
2022/07/28 08:34:35;;;;;;;;;;;23.80;44.10;;;;;;5050894;28;19913;-61
2022/07/28 08:37:01;;;;;;;;;;;23.70;44.10;;;;;;5045110;28;19913;-63
2022/07/28 08:39:27;;;;;;;;;;;23.80;44.10;;;;;;5050190;28;19924;-61
2022/07/28 08:41:53;;;;;;;;;;;23.70;44.10;;;;;;5044683;28;20281;-61
2022/07/28 08:44:19;;;;;;;;;;;23.80;43.80;;;;;;5050287;28;19988;-62
2022/07/28 08:46:46;;;;;;;;;;;23.80;43.60;;;;;;5045226;28;20035;-62
2022/07/28 08:49:11;;;;;;;;;;;23.80;43.50;;;;;;5044433;28;20270;-62
2022/07/28 08:51:37;;;;;;;;;;;23.80;43.50;;;;;;5058851;28;19973;-61
2022/07/28 08:54:02;;;;;;;;;;;23.80;43.40;;;;;;5050468;28;20372;-62
2022/07/28 08:56:28;;;;;;;;;;;23.80;43.40;;;;;;5050591;28;19924;-60
2022/07/28 08:58:53;;;;;;;;;;;23.80;43.50;;;;;;5045538;28;20261;-61
2022/07/28 09:01:19;;;;;;;;;;;23.70;43.40;;;;;;5048575;28;20325;-61
2022/07/28 09:03:44;;;;;;;;;;;23.80;43.50;;;;;;5033436;28;19921;-61
2022/07/28 09:06:10;;;;;;;;;;;23.70;43.60;;;;;;5048557;28;19917;-61
2022/07/28 09:08:35;;;;;;;;;;;23.60;43.70;;;;;;5049211;28;19921;-61
2022/07/28 09:11:01;;;;;;;;;;;23.60;43.80;;;;;;5048574;28;19966;-61
2022/07/28 09:13:26;;;;;;;;;;;23.60;43.80;;;;;;5047736;28;19925;-62
2022/07/28 09:15:52;;;;;;;;;;;23.60;43.80;;;;;;5047231;28;20250;-62
2022/07/28 09:18:17;;;;;;;;;;;23.60;43.80;;;;;;5049420;28;19913;-62
2022/07/28 09:20:43;;;;;;;;;;;23.60;43.70;;;;;;5048834;28;20368;-61
2022/07/28 09:23:08;;;;;;;;;;;23.60;43.80;;;;;;5049608;28;20002;-61
2022/07/28 09:25:34;;;;;;;;;;;23.60;43.90;;;;;;5047104;28;19930;-61
2022/07/28 09:28:07;;;;;;;;;;;23.60;43.80;;;;;;5047706;28;19967;-60
2022/07/28 09:30:34;;;;;;;;;;;23.60;43.60;;;;;;5048819;28;19917;-60
2022/07/28 09:33:12;;;;;;;;;;;23.60;43.60;;;;;;5049827;28;19912;-61
2022/07/28 09:35:41;;;;;;;;;;;23.60;43.60;;;;;;5045920;28;20383;-61
2022/07/28 09:38:07;;;;;;;;;;;23.60;43.60;;;;;;5046932;28;20080;-62
2022/07/28 09:40:32;;;;;;;;;;;23.60;43.50;;;;;;5049043;28;19927;-63
2022/07/28 09:42:57;;;;;;;;;;;23.60;43.70;;;;;;5047231;28;19966;-62
2022/07/28 09:45:27;;;;;;;;;;;23.60;43.50;;;;;;5048585;28;19963;-63
2022/07/28 09:48:09;;;;;;;;;;;23.60;43.50;;;;;;5045172;28;19924;-62
2022/07/28 09:50:35;;;;;;;;;;;23.60;43.30;;;;;;5048643;28;19916;-62
2022/07/28 09:53:01;;;;;;;;;;;23.70;43.30;;;;;;5051327;28;19934;-62
2022/07/28 09:55:27;;;;;;;;;;;23.70;43.20;;;;;;5050128;28;19917;-60
2022/07/28 09:57:54;;;;;;;;;;;23.70;43.10;;;;;;5046187;28;19912;-61
2022/07/28 10:00:29;;;;;;;;;;;23.80;42.90;;;;;;5044904;28;20368;-61
2022/07/28 10:02:54;;;;;;;;;;;23.90;42.90;;;;;;5050633;28;19932;-61
2022/07/28 10:05:20;;;;;;;;;;;23.90;42.80;;;;;;5045825;28;19913;-61
2022/07/28 10:07:49;;;;;;;;;;;24.00;42.80;;;;;;5047661;28;19970;-62
2022/07/28 10:10:14;;;;;;;;;;;24.00;42.70;;;;;;5046710;28;20685;-62
2022/07/28 10:12:40;;;;;;;;;;;24.00;42.80;;;;;;5063526;28;20070;-62
2022/07/28 10:17:56;;;;;;;;;;;23.80;43.00;;;;;;5046112;28;19924;-61
2022/07/28 10:20:21;;;;;;;;;;;23.80;43.00;;;;;;5045689;28;19908;-61
2022/07/28 10:22:47;;;;;;;;;;;23.70;43.00;;;;;;5042493;28;20226;-60
2022/07/28 10:25:12;;;;;;;;;;;23.70;43.10;;;;;;5051815;28;19916;-62
2022/07/28 10:27:39;;;;;;;;;;;23.70;43.10;;;;;;5044955;28;19943;-61
2022/07/28 10:30:05;;;;;;;;;;;23.70;43.00;;;;;;5048274;28;19970;-62
2022/07/28 10:32:32;;;;;;;;;;;23.70;42.70;;;;;;5049468;28;19909;-63
2022/07/28 10:35:04;;;;;;;;;;;23.80;42.70;;;;;;5048763;28;20030;-60
2022/07/28 10:37:30;;;;;;;;;;;23.90;42.80;;;;;;5042168;28;19955;-62
2022/07/28 10:39:58;;;;;;;;;;;23.90;42.80;;;;;;5042099;28;19909;-63
2022/07/28 10:42:23;;;;;;;;;;;23.80;42.70;;;;;;5049070;28;19995;-62
2022/07/28 10:44:49;;;;;;;;;;;23.80;42.80;;;;;;5048050;28;20020;-62
2022/07/28 10:47:14;;;;;;;;;;;23.70;42.80;;;;;;5043475;28;19928;-62
2022/07/28 10:49:40;;;;;;;;;;;23.80;42.90;;;;;;5044425;28;19913;-62
2022/07/28 10:52:06;;;;;;;;;;;23.80;42.90;;;;;;5047274;28;19913;-61
2022/07/28 10:54:51;;;;;;;;;;;23.80;42.80;;;;;;5048338;28;20017;-61
2022/07/28 10:57:17;;;;;;;;;;;23.80;42.80;;;;;;5018137;28;19917;-62
2022/07/28 10:59:42;;;;;;;;;;;23.70;42.80;;;;;;5046640;28;20292;-61
2022/07/28 11:02:08;;;;;;;;;;;23.70;42.90;;;;;;5047023;28;19912;-62
2022/07/28 11:04:40;;;;;;;;;;;23.70;43.00;;;;;;5048407;28;19998;-61
2022/07/28 11:07:09;;;;;;;;;;;23.70;43.00;;;;;;5037458;28;19993;-62
2022/07/28 11:09:34;;;;;;;;;;;23.70;42.90;;;;;;5046533;28;19951;-62
2022/07/28 11:12:01;;;;;;;;;;;23.70;42.90;;;;;;5044971;28;19959;-62
2022/07/28 11:14:32;;;;;;;;;;;23.80;42.80;;;;;;5049127;28;19920;-62
2022/07/28 11:17:03;;;;;;;;;;;23.80;42.70;;;;;;5044922;28;19917;-62
2022/07/28 11:19:29;;;;;;;;;;;23.90;42.40;;;;;;5041159;28;20381;-62
2022/07/28 11:22:13;;;;;;;;;;;24.00;42.00;;;;;;5048633;28;19916;-63
2022/07/28 11:24:57;;;;;;;;;;;24.00;42.00;;;;;;5050744;28;20352;-62
2022/07/28 11:27:41;;;;;;;;;;;24.00;42.20;;;;;;5043787;28;20034;-62
2022/07/28 11:30:11;;;;;;;;;;;23.90;42.20;;;;;;5038846;28;19917;-62
2022/07/28 11:32:48;;;;;;;;;;;23.90;42.20;;;;;;5041885;28;19913;-63
2022/07/28 11:35:14;;;;;;;;;;;23.80;42.10;;;;;;5038348;28;19916;-62
2022/07/28 11:38:03;;;;;;;;;;;23.80;42.10;;;;;;5047640;28;19917;-61
2022/07/28 11:40:28;;;;;;;;;;;23.80;42.40;;;;;;5026604;28;20636;-62
2022/07/28 11:43:14;;;;;;;;;;;23.80;42.50;;;;;;5043352;28;19913;-62
2022/07/28 11:45:39;;;;;;;;;;;23.80;42.50;;;;;;5043211;28;19917;-62
2022/07/28 11:48:20;;;;;;;;;;;23.80;42.60;;;;;;5044802;28;20550;-61
2022/07/28 11:51:09;;;;;;;;;;;23.90;42.60;;;;;;5047460;28;19923;-62
2022/07/28 11:53:35;;;;;;;;;;;23.90;42.60;;;;;;5037529;28;20317;-62
2022/07/28 11:56:04;;;;;;;;;;;23.80;42.60;;;;;;5047231;28;19917;-62
2022/07/28 11:58:29;;;;;;;;;;;23.90;42.50;;;;;;5045388;28;19917;-61
2022/07/28 12:01:13;;;;;;;;;;;23.80;42.60;;;;;;5045204;28;19923;-63
2022/07/28 12:03:40;;;;;;;;;;;23.80;42.40;;;;;;5047966;28;19939;-63
2022/07/28 12:06:06;;;;;;;;;;;23.90;42.40;;;;;;5044086;28;20349;-63
2022/07/28 12:08:55;;;;;;;;;;;23.90;42.30;;;;;;5043300;28;20009;-62
2022/07/28 12:11:23;;;;;;;;;;;24.00;42.30;;;;;;5041660;28;19920;-62
2022/07/28 12:14:02;;;;;;;;;;;24.00;42.30;;;;;;5048498;28;20304;-62
2022/07/28 12:16:31;;;;;;;;;;;24.00;42.30;;;;;;5051055;28;19916;-62
2022/07/28 12:18:56;;;;;;;;;;;24.10;42.40;;;;;;5051636;28;19912;-62
2022/07/28 12:21:37;;;;;;;;;;;24.00;42.30;;;;;;5045027;28;19913;-62
2022/07/28 12:24:03;;;;;;;;;;;24.00;42.30;;;;;;5042903;28;20039;-62
2022/07/28 12:26:29;;;;;;;;;;;24.00;42.30;;;;;;5052120;28;20008;-61
2022/07/28 12:28:55;;;;;;;;;;;24.00;42.30;;;;;;5050605;28;20008;-61
2022/07/28 12:31:24;;;;;;;;;;;24.00;42.20;;;;;;5050664;28;20470;-62
2022/07/28 12:33:51;;;;;;;;;;;24.00;42.20;;;;;;5051675;28;20327;-62
2022/07/28 12:36:18;;;;;;;;;;;24.00;42.20;;;;;;5049242;28;19921;-61
2022/07/28 12:38:44;;;;;;;;;;;24.10;42.00;;;;;;5047745;28;20326;-62
2022/07/28 12:41:15;;;;;;;;;;;24.20;41.90;;;;;;5052531;28;20003;-61
2022/07/28 12:43:47;;;;;;;;;;;24.20;41.90;;;;;;5044417;28;19920;-61
2022/07/28 12:46:18;;;;;;;;;;;24.20;41.90;;;;;;5035988;28;20357;-62
2022/07/28 12:48:43;;;;;;;;;;;24.20;42.00;;;;;;5036912;28;19913;-61
2022/07/28 12:51:28;;;;;;;;;;;24.10;41.90;;;;;;5053827;28;20002;-61
2022/07/28 12:53:54;;;;;;;;;;;24.10;41.80;;;;;;5048753;28;19913;-61
2022/07/28 12:56:20;;;;;;;;;;;24.10;41.60;;;;;;5052777;28;19917;-62
2022/07/28 12:58:45;;;;;;;;;;;24.20;41.60;;;;;;5053862;28;19916;-62
2022/07/28 13:01:11;;;;;;;;;;;24.20;41.50;;;;;;5052314;28;19908;-63
2022/07/28 13:03:37;;;;;;;;;;;24.20;41.50;;;;;;5053256;28;20059;-62
2022/07/28 13:06:08;;;;;;;;;;;24.20;41.50;;;;;;5048040;28;19978;-61
2022/07/28 13:08:38;;;;;;;;;;;24.20;41.50;;;;;;5051036;28;20337;-61
2022/07/28 13:11:04;;;;;;;;;;;24.30;41.40;;;;;;5040235;28;19917;-61
2022/07/28 13:13:29;;;;;;;;;;;24.20;41.10;;;;;;5048613;28;19935;-62
2022/07/28 13:16:30;;;;;;;;;;;24.20;41.10;;;;;;5052214;28;20376;-62
2022/07/28 13:18:56;;;;;;;;;;;24.20;41.00;;;;;;4977287;28;19910;-61
2022/07/28 13:21:40;;;;;;;;;;;24.10;41.00;;;;;;5037472;28;19913;-62
2022/07/28 13:24:09;;;;;;;;;;;24.20;41.00;;;;;;5042722;28;19913;-62
2022/07/28 13:26:37;;;;;;;;;;;24.20;40.80;;;;;;5044874;28;19963;-62
2022/07/28 13:29:06;;;;;;;;;;;24.30;40.50;;;;;;5045307;28;20296;-62
2022/07/28 13:31:34;;;;;;;;;;;24.20;40.60;;;;;;5043266;28;20004;-62
2022/07/28 13:34:00;;;;;;;;;;;24.20;40.70;;;;;;5045636;28;20284;-62
2022/07/28 13:36:25;;;;;;;;;;;24.20;40.70;;;;;;5044700;28;19912;-61
2022/07/28 13:38:51;;;;;;;;;;;24.30;40.80;;;;;;5041807;28;19929;-62
2022/07/28 13:41:17;;;;;;;;;;;24.30;40.40;;;;;;5043087;28;19916;-62
2022/07/28 13:43:44;;;;;;;;;;;24.40;40.60;;;;;;5045905;28;19920;-62
2022/07/28 13:46:10;;;;;;;;;;;24.40;40.30;;;;;;5045999;28;20331;-62
2022/07/28 13:48:39;;;;;;;;;;;24.30;40.20;;;;;;5045190;28;20015;-62
2022/07/28 13:51:04;;;;;;;;;;;24.30;40.10;;;;;;5047357;28;19912;-62
2022/07/28 13:53:30;;;;;;;;;;;24.30;40.30;;;;;;5040972;28;19916;-62
2022/07/28 13:55:55;;;;;;;;;;;24.20;40.10;;;;;;5043530;28;19920;-62
2022/07/28 13:58:20;;;;;;;;;;;24.30;40.30;;;;;;5039902;28;20380;-62
2022/07/28 14:00:46;;;;;;;;;;;24.30;40.40;;;;;;5042937;28;20029;-62
2022/07/28 14:03:11;;;;;;;;;;;24.30;40.40;;;;;;5043706;28;19920;-62
2022/07/28 14:05:37;;;;;;;;;;;24.30;40.50;;;;;;5041884;28;19924;-62
2022/07/28 14:08:03;;;;;;;;;;;24.30;40.50;;;;;;5036620;28;19932;-62
2022/07/28 14:10:28;;;;;;;;;;;24.30;40.30;;;;;;5045466;28;20023;-62
2022/07/28 14:12:54;;;;;;;;;;;24.30;40.30;;;;;;5036133;28;19925;-62
2022/07/28 14:15:19;;;;;;;;;;;24.40;40.30;;;;;;5041758;28;20360;-62
2022/07/28 14:17:44;;;;;;;;;;;24.40;40.20;;;;;;5041078;28;19917;-61
2022/07/28 14:20:10;;;;;;;;;;;24.60;40.40;;;;;;5042476;28;19920;-62